»·PEaware :: TEXAN22 KRND-KRND

TEXAN22 :: KRND-KRND

FLIGHT INFORMATION

Flight Status: Arrived
Operator: Unknown
More flights by this operator :: More flights under this callsign
Pilot: Indie I. (23343)
Aircraft: BEECH AIRCRAFT T-6A TEXAN
(TEX2)
More flights by this aircraft type
Origin: KRND Randolph AFB
United States
Destination: KRND Randolph AFB
United States
More flights between these airports :: More routes between these airports
Route: SR-287
File this flight plan on PilotEdge
Remarks: FALLS6 to SR-287
Altitude:
(Current/Filed)
5,500ft
Speed:
(Current/Filed)
250kts
Departed: 30-Apr-20 11:47 AM
Arrived: 30-Apr-20 01:00 PM
Distance/Time
Traveled:
1nm/1:13
Distance/Time
To Go:
Arrived

Flight Plot

Page will automatically refresh every two minutes.

Flight plan parsing failed; only flown route is shown


Map Options




Map Legend


Flown Route
Filed Route
Departure Airport
Arrival Airport
Navaid (VOR, NDB)
Fix

Horizontal Profiles

Position Reports

Time Latitude Longitude Heading Altitude Ground
Speed
30-Apr-20 11:41 29.534865 -98.290607 209 765ft 0kts
30-Apr-20 11:42 29.534863 -98.290608 209 765ft 0kts
30-Apr-20 11:43 29.534861 -98.290609 209 765ft 0kts
30-Apr-20 11:44 29.534647 -98.291281 278 765ft 0kts
30-Apr-20 11:45 29.534381 -98.292878 148 765ft 10kts
30-Apr-20 11:46 29.501697 -98.280358 170 1704ft 187kts
30-Apr-20 11:47 29.446287 -98.263431 165 3571ft 211kts
30-Apr-20 11:48 29.389217 -98.248540 165 5640ft 229kts
30-Apr-20 11:49 29.326842 -98.230543 165 5695ft 229kts
30-Apr-20 11:50 29.266507 -98.207689 159 5485ft 224kts
30-Apr-20 11:51 29.209302 -98.179866 156 5395ft 222kts
30-Apr-20 11:52 29.154132 -98.147602 147 5243ft 222kts
30-Apr-20 11:53 29.119431 -98.157206 238 4515ft 227kts
30-Apr-20 11:54 29.119431 -98.157206 238 4515ft 227kts
30-Apr-20 11:55 29.119431 -98.157206 238 4515ft 227kts
30-Apr-20 11:56 29.119431 -98.157206 238 4515ft 227kts
30-Apr-20 11:57 29.100700 -98.182956 224 3421ft 235kts
30-Apr-20 11:58 29.063121 -98.233066 227 1473ft 200kts
30-Apr-20 11:59 29.023471 -98.282011 229 978ft 209kts
30-Apr-20 12:00 28.986796 -98.330749 231 1379ft 203kts
30-Apr-20 12:01 28.946806 -98.379574 232 1216ft 211kts
30-Apr-20 12:02 28.909814 -98.429390 227 1480ft 208kts
30-Apr-20 12:03 28.850786 -98.427693 177 1677ft 215kts
30-Apr-20 12:04 28.796071 -98.426440 176 936ft 188kts
30-Apr-20 12:05 28.742062 -98.423690 176 1309ft 196kts
30-Apr-20 12:06 28.683493 -98.420460 177 1318ft 207kts
30-Apr-20 12:07 28.669281 -98.365902 80 1097ft 212kts
30-Apr-20 12:08 28.675742 -98.306413 84 889ft 189kts
30-Apr-20 12:09 28.683377 -98.246759 78 950ft 193kts
30-Apr-20 12:10 28.693400 -98.179124 83 1196ft 235kts
30-Apr-20 12:11 28.706181 -98.105883 67 1301ft 217kts
30-Apr-20 12:12 28.727662 -98.038422 71 1622ft 226kts
30-Apr-20 12:13 28.750504 -97.974188 65 1531ft 217kts
30-Apr-20 12:14 28.772225 -97.910623 90 1444ft 223kts
30-Apr-20 12:15 28.769876 -97.840122 92 1017ft 217kts
30-Apr-20 12:16 28.768276 -97.775889 90 1586ft 200kts
30-Apr-20 12:17 28.765049 -97.709651 89 2101ft 200kts
30-Apr-20 12:18 28.766180 -97.639667 74 2068ft 215kts
30-Apr-20 12:19 28.814540 -97.614329 6 1346ft 182kts
30-Apr-20 12:20 28.862760 -97.611143 4 1252ft 187kts
30-Apr-20 12:21 28.916592 -97.606751 1 1655ft 199kts
30-Apr-20 12:22 28.957117 -97.653839 309 2146ft 208kts
30-Apr-20 12:23 28.994785 -97.704791 309 1840ft 209kts
30-Apr-20 12:24 29.032261 -97.755865 308 1344ft 219kts
30-Apr-20 12:25 29.070257 -97.809687 311 1610ft 223kts
30-Apr-20 12:26 29.109382 -97.857289 322 1379ft 211kts
30-Apr-20 12:28 29.156759 -97.898754 322 928ft 203kts
30-Apr-20 12:29 29.197875 -97.935031 323 756ft 179kts
30-Apr-20 12:30 29.234409 -97.969336 309 1333ft 187kts
30-Apr-20 12:31 29.266925 -98.017764 307 4110ft 198kts
30-Apr-20 12:32 29.306425 -98.075306 305 4704ft 249kts
30-Apr-20 12:33 29.344031 -98.138197 314 4444ft 223kts
30-Apr-20 12:34 29.380357 -98.197893 307 2909ft 241kts
30-Apr-20 12:35 29.417149 -98.253458 306 2190ft 200kts
30-Apr-20 12:36 29.448626 -98.303602 305 2258ft 200kts
30-Apr-20 12:37 29.496828 -98.333971 6 1687ft 214kts
30-Apr-20 12:38 29.551983 -98.342431 353 1877ft 208kts
30-Apr-20 12:39 29.543734 -98.299212 151 1850ft 208kts
30-Apr-20 12:40 29.524442 -98.301370 330 1754ft 131kts
30-Apr-20 12:41 29.542353 -98.298222 149 987ft 122kts
30-Apr-20 12:42 29.511203 -98.281591 207 1584ft 159kts
30-Apr-20 12:43 29.534657 -98.306433 19 1859ft 123kts
30-Apr-20 12:44 29.519470 -98.283277 151 1055ft 160kts
30-Apr-20 12:45 29.526195 -98.301146 333 1777ft 127kts
30-Apr-20 12:45 29.546672 -98.302011 127 1173ft 130kts
30-Apr-20 12:46 29.518029 -98.282465 150 1060ft 164kts
30-Apr-20 12:48 29.517633 -98.320150 327 1881ft 212kts
30-Apr-20 12:48 29.560218 -98.349049 331 1918ft 199kts
30-Apr-20 12:49 29.586875 -98.334106 96 1389ft 163kts
30-Apr-20 12:50 29.557347 -98.308130 148 1047ft 124kts
30-Apr-20 12:51 29.528438 -98.288966 149 782ft 107kts
30-Apr-20 12:52 29.496676 -98.304954 294 1583ft 220kts
30-Apr-20 12:53 29.547507 -98.340420 328 1820ft 213kts
30-Apr-20 12:54 29.547711 -98.301836 149 2754ft 165kts
30-Apr-20 12:55 29.523134 -98.305414 321 2326ft 119kts
30-Apr-20 12:56 29.529583 -98.289720 149 765ft 82kts
30-Apr-20 12:57 29.512486 -98.295154 330 1752ft 150kts
30-Apr-20 12:58 29.545347 -98.309089 61 1380ft 133kts
30-Apr-20 12:59 29.527339 -98.288064 148 765ft 19kts

Navigation Log

Ident Type
Flight plan parsing failed, navigation log unavailable